Time;durP1;ratioP1;P1;durP2;ratioP2;P2;SDS_P1;SDS_P2;PMS_P1;PMS_P2;Temp;Humidity;BMP_temperature;BMP_pressure;BME280_temperature;BME280_humidity;BME280_pressure;Samples;Min_cycle;Max_cycle;Signal;HPM_P1;HPM_P2
2022/10/13 00:00:32;;;;;;;12.13;11.13;;;13.70;44.40;;;;;;10382179;28;20237;-66
2022/10/13 00:05:40;;;;;;;25.03;12.00;;;13.70;44.70;;;;;;10386204;28;20218;-66
2022/10/13 00:10:44;;;;;;;11.53;10.60;;;13.60;44.90;;;;;;10378811;28;20241;-66
2022/10/13 00:15:48;;;;;;;12.03;10.73;;;13.60;44.90;;;;;;10378648;28;20234;-67
2022/10/13 00:20:52;;;;;;;11.17;10.27;;;13.60;44.80;;;;;;10382187;28;20633;-66
2022/10/13 00:25:55;;;;;;;29.30;12.00;;;13.60;44.70;;;;;;10382500;28;20237;-66
2022/10/13 00:30:58;;;;;;;11.70;10.70;;;13.60;44.30;;;;;;10378057;28;20234;-66
2022/10/13 00:36:06;;;;;;;17.20;9.97;;;13.50;44.50;;;;;;10383131;28;20222;-67
2022/10/13 00:41:09;;;;;;;9.53;8.83;;;13.50;44.60;;;;;;10383350;28;20229;-66
2022/10/13 00:46:13;;;;;;;12.27;10.27;;;13.40;44.60;;;;;;10377417;28;20229;-66
2022/10/13 00:51:20;;;;;;;19.97;10.10;;;13.40;44.40;;;;;;10381275;28;20233;-66
2022/10/13 00:56:25;;;;;;;11.97;9.00;;;13.30;44.50;;;;;;10377337;28;20869;-67
2022/10/13 01:01:29;;;;;;;37.53;10.30;;;13.30;44.40;;;;;;10384893;28;20308;-66
2022/10/13 01:06:34;;;;;;;10.20;9.20;;;13.30;44.00;;;;;;10380105;28;20788;-66
2022/10/13 01:11:56;;;;;;;9.47;8.67;;;13.20;43.90;;;;;;10379410;28;20233;-66
2022/10/13 01:17:09;;;;;;;8.70;8.00;;;13.10;44.10;;;;;;10381805;28;20225;-66
2022/10/13 01:22:27;;;;;;;13.57;9.13;;;13.00;44.50;;;;;;10450758;22;20214;-73
2022/10/13 01:27:58;;;;;;;9.57;8.87;;;13.00;44.30;;;;;;10419822;28;20575;-73
2022/10/13 01:33:14;;;;;;;7.40;6.90;;;13.00;44.30;;;;;;10416258;28;20590;-73
2022/10/13 01:38:26;;;;;;;8.10;7.57;;;12.90;44.30;;;;;;10417494;28;20278;-73
2022/10/13 01:43:35;;;;;;;9.10;8.07;;;12.90;44.20;;;;;;10428423;28;20233;-73
2022/10/13 01:48:41;;;;;;;11.13;8.67;;;13.00;44.20;;;;;;10427628;28;20233;-73
2022/10/13 01:53:46;;;;;;;8.07;7.53;;;12.80;43.80;;;;;;10425532;28;20226;-73
2022/10/13 01:58:50;;;;;;;8.23;7.63;;;12.70;43.90;;;;;;10425864;28;20231;-74
2022/10/13 02:04:04;;;;;;;8.97;8.27;;;12.60;44.00;;;;;;10426204;28;20233;-73
2022/10/13 02:09:13;;;;;;;8.20;7.53;;;12.60;44.30;;;;;;10432277;28;20239;-73
2022/10/13 02:14:20;;;;;;;8.87;8.27;;;12.60;44.10;;;;;;10427726;28;20741;-73
2022/10/13 02:19:26;;;;;;;7.13;6.63;;;12.60;44.00;;;;;;10426652;28;20928;-73
2022/10/13 02:24:29;;;;;;;7.50;7.00;;;12.60;44.00;;;;;;10423803;28;20221;-73
2022/10/13 02:29:32;;;;;;;8.50;7.90;;;12.60;44.20;;;;;;10430313;28;20313;-73
2022/10/13 02:34:37;;;;;;;8.43;7.83;;;12.60;44.20;;;;;;10424946;28;20737;-73
2022/10/13 02:39:40;;;;;;;9.23;8.53;;;12.60;44.20;;;;;;10429689;28;20237;-73
2022/10/13 02:44:43;;;;;;;7.60;7.10;;;12.60;44.00;;;;;;10425736;28;20225;-73
2022/10/13 02:49:48;;;;;;;8.10;7.50;;;12.60;43.90;;;;;;10424574;28;20631;-73
2022/10/13 02:54:51;;;;;;;8.37;7.73;;;12.60;44.00;;;;;;10424820;28;20243;-73
2022/10/13 02:59:54;;;;;;;8.93;8.33;;;12.60;44.00;;;;;;10419356;28;20230;-73
2022/10/13 03:04:59;;;;;;;7.80;7.20;;;12.50;43.90;;;;;;10427850;28;20221;-74
2022/10/13 03:10:03;;;;;;;8.50;7.60;;;12.50;43.90;;;;;;10422464;28;20244;-73
2022/10/13 03:15:08;;;;;;;8.27;7.67;;;12.50;43.70;;;;;;10425072;28;20233;-73
2022/10/13 03:20:12;;;;;;;8.73;8.03;;;12.40;43.70;;;;;;10423807;28;20225;-73
2022/10/13 03:25:15;;;;;;;8.20;7.50;;;12.30;44.10;;;;;;10424676;28;20752;-73
2022/10/13 03:30:19;;;;;;;8.97;8.27;;;12.30;44.20;;;;;;10423204;28;20221;-73
2022/10/13 03:35:23;;;;;;;8.87;8.07;;;12.30;44.40;;;;;;10423119;28;20228;-73
2022/10/13 03:40:27;;;;;;;9.33;8.53;;;12.30;44.60;;;;;;10419490;28;20225;-73
2022/10/13 03:45:30;;;;;;;9.97;8.97;;;12.30;44.40;;;;;;10419148;28;20221;-73
2022/10/13 03:50:35;;;;;;;11.53;10.43;;;12.40;44.50;;;;;;10421253;28;20222;-73
2022/10/13 03:55:38;;;;;;;9.60;8.80;;;12.30;44.40;;;;;;10420205;28;20236;-73
2022/10/13 04:00:41;;;;;;;10.53;9.50;;;12.30;44.40;;;;;;10422130;28;20221;-74
2022/10/13 04:05:45;;;;;;;9.30;8.60;;;12.20;44.40;;;;;;10421573;28;20233;-73
2022/10/13 04:10:49;;;;;;;10.03;9.23;;;12.20;44.80;;;;;;10420918;28;20236;-73
2022/10/13 04:15:52;;;;;;;10.73;9.83;;;12.20;44.80;;;;;;10420216;28;20597;-73
2022/10/13 04:20:57;;;;;;;10.20;9.30;;;12.20;45.60;;;;;;10417559;28;20221;-74
2022/10/13 04:26:00;;;;;;;10.83;9.93;;;12.20;45.00;;;;;;10418551;28;20712;-73
2022/10/13 04:31:03;;;;;;;11.23;10.23;;;12.10;45.10;;;;;;10416731;28;20225;-73
2022/10/13 04:36:11;;;;;;;9.67;8.90;;;12.10;45.20;;;;;;10420742;28;20230;-73
2022/10/13 04:41:16;;;;;;;8.87;8.07;;;12.10;45.70;;;;;;10421161;28;20244;-73
2022/10/13 04:46:22;;;;;;;10.70;9.80;;;12.20;45.80;;;;;;10415870;28;20217;-73
2022/10/13 04:51:26;;;;;;;12.17;10.97;;;12.20;46.60;;;;;;10420105;28;20229;-73
2022/10/13 04:56:30;;;;;;;10.53;9.33;;;12.20;46.00;;;;;;10419921;28;20274;-73
2022/10/13 05:01:34;;;;;;;12.00;10.90;;;12.30;46.00;;;;;;10418520;28;20236;-74
2022/10/13 05:06:41;;;;;;;9.33;8.53;;;12.30;46.00;;;;;;10412134;28;21320;-74
2022/10/13 05:12:05;;;;;;;10.57;9.77;;;12.40;46.40;;;;;;10418469;28;20316;-73
2022/10/13 05:17:08;;;;;;;10.93;9.83;;;12.50;46.20;;;;;;10413594;28;20230;-73
2022/10/13 05:22:12;;;;;;;14.10;12.10;;;12.50;46.20;;;;;;10419870;28;20287;-73
2022/10/13 05:27:16;;;;;;;13.07;11.77;;;12.60;46.90;;;;;;10412322;28;20233;-74
2022/10/13 05:32:19;;;;;;;12.43;11.27;;;12.60;46.60;;;;;;10417643;28;20229;-74
2022/10/13 05:37:24;;;;;;;14.43;12.93;;;12.70;46.50;;;;;;10416348;28;20237;-74
2022/10/13 05:42:29;;;;;;;14.33;12.87;;;12.70;46.50;;;;;;10417875;28;20239;-74
2022/10/13 05:47:32;;;;;;;14.30;12.80;;;12.80;46.50;;;;;;10419785;28;20282;-74
2022/10/13 05:52:37;;;;;;;15.90;13.50;;;12.70;46.20;;;;;;10416935;28;20291;-74
2022/10/13 05:57:43;;;;;;;17.80;13.20;;;12.70;46.50;;;;;;10417346;28;20726;-73
2022/10/13 06:02:51;;;;;;;14.00;12.47;;;12.80;46.60;;;;;;10421491;28;20284;-74
2022/10/13 06:07:55;;;;;;;13.70;11.70;;;12.80;46.80;;;;;;10413524;28;20241;-73
2022/10/13 06:12:58;;;;;;;13.00;11.70;;;12.80;46.70;;;;;;10419633;28;20279;-73
2022/10/13 06:18:01;;;;;;;13.20;11.87;;;12.80;46.60;;;;;;10415935;28;20906;-73
2022/10/13 06:23:06;;;;;;;14.00;12.50;;;12.80;46.80;;;;;;10416915;28;20279;-74
2022/10/13 06:28:09;;;;;;;12.93;11.53;;;12.90;47.10;;;;;;10418821;28;20229;-73
2022/10/13 06:33:12;;;;;;;13.93;12.67;;;13.00;47.00;;;;;;10425833;28;20280;-73
2022/10/13 06:38:17;;;;;;;13.97;12.57;;;13.00;46.90;;;;;;10421958;28;20234;-74
2022/10/13 06:43:20;;;;;;;14.67;12.80;;;13.00;47.20;;;;;;10425310;28;20243;-73
2022/10/13 06:48:23;;;;;;;12.57;11.37;;;13.00;47.00;;;;;;10427906;28;20237;-73
2022/10/13 06:53:28;;;;;;;15.37;13.07;;;13.10;47.20;;;;;;10430222;28;20221;-73
2022/10/13 06:58:31;;;;;;;14.33;13.00;;;13.10;47.80;;;;;;10427563;28;20276;-74
2022/10/13 07:03:36;;;;;;;15.47;13.97;;;13.10;47.60;;;;;;10426665;28;20323;-74
2022/10/13 07:08:40;;;;;;;14.70;13.40;;;13.10;48.00;;;;;;10420573;28;20236;-74
2022/10/13 07:13:44;;;;;;;14.33;12.83;;;13.10;48.30;;;;;;10418356;28;20595;-75
2022/10/13 07:18:49;;;;;;;12.97;11.73;;;13.20;48.20;;;;;;10426957;28;20268;-75
2022/10/13 07:23:55;;;;;;;11.00;10.00;;;13.20;48.30;;;;;;10425231;28;20622;-74
2022/10/13 07:28:58;;;;;;;12.50;11.30;;;13.30;48.80;;;;;;10429233;28;20225;-74
2022/10/13 07:34:03;;;;;;;12.67;10.60;;;13.20;48.40;;;;;;10414907;28;20761;-74
2022/10/13 07:39:09;;;;;;;11.50;9.37;;;13.30;48.80;;;;;;10421447;28;20229;-74
2022/10/13 07:44:12;;;;;;;10.37;9.37;;;13.30;49.10;;;;;;10424565;28;20238;-74
2022/10/13 07:49:15;;;;;;;10.67;9.57;;;13.40;48.90;;;;;;10425884;28;20278;-74
2022/10/13 07:54:19;;;;;;;10.77;9.77;;;13.50;48.90;;;;;;10425037;28;20308;-74
2022/10/13 07:59:29;;;;;;;10.50;9.30;;;13.50;49.40;;;;;;10425114;28;20245;-74
2022/10/13 08:04:33;;;;;;;9.40;8.40;;;13.60;49.10;;;;;;10419928;28;20308;-74
2022/10/13 08:09:37;;;;;;;11.20;9.87;;;13.70;49.30;;;;;;10425430;28;20645;-74
2022/10/13 08:14:41;;;;;;;11.90;10.70;;;13.70;50.00;;;;;;10419449;28;20225;-74
2022/10/13 08:19:44;;;;;;;12.10;10.50;;;13.80;49.40;;;;;;10423877;28;20721;-74
2022/10/13 08:24:48;;;;;;;11.07;9.07;;;13.90;49.50;;;;;;10416088;28;20222;-74
2022/10/13 08:29:53;;;;;;;10.00;9.00;;;14.00;50.00;;;;;;10419865;28;20226;-74
2022/10/13 08:34:56;;;;;;;10.37;9.27;;;14.10;49.50;;;;;;10422449;28;20720;-74
2022/10/13 08:40:01;;;;;;;10.57;9.57;;;14.20;49.60;;;;;;10422043;28;20221;-75
2022/10/13 08:45:05;;;;;;;11.13;10.03;;;14.30;49.80;;;;;;10422131;28;20236;-74
2022/10/13 08:50:31;;;;;;;11.83;10.13;;;14.30;49.90;;;;;;10418479;28;20229;-74
2022/10/13 08:55:42;;;;;;;12.23;11.13;;;14.40;50.10;;;;;;10418115;28;20221;-74
2022/10/13 09:00:45;;;;;;;15.50;11.67;;;14.50;50.60;;;;;;10416676;28;20240;-74
2022/10/13 09:05:59;;;;;;;12.10;10.97;;;14.60;49.80;;;;;;10416008;28;20233;-74
2022/10/13 09:11:03;;;;;;;9.70;8.90;;;14.60;50.90;;;;;;10419813;28;20252;-74
2022/10/13 09:16:07;;;;;;;13.57;11.77;;;14.80;50.60;;;;;;10421481;28;20226;-73
2022/10/13 09:21:16;;;;;;;12.83;11.30;;;14.80;50.10;;;;;;10407585;28;20226;-73
2022/10/13 09:26:24;;;;;;;14.10;11.57;;;14.90;50.20;;;;;;10412685;28;20225;-73
2022/10/13 09:31:29;;;;;;;12.97;10.87;;;15.00;50.50;;;;;;10415650;28;20304;-73
2022/10/13 09:36:33;;;;;;;12.60;11.40;;;15.00;50.30;;;;;;10413183;28;20236;-75
2022/10/13 09:41:37;;;;;;;13.07;11.77;;;15.10;50.20;;;;;;10414371;28;20221;-74
2022/10/13 09:46:48;;;;;;;12.80;11.63;;;15.20;50.40;;;;;;10408448;28;20710;-74
2022/10/13 09:51:51;;;;;;;12.90;11.60;;;15.30;51.00;;;;;;10417562;28;20229;-74
2022/10/13 09:57:01;;;;;;;13.80;11.87;;;15.30;50.40;;;;;;10415201;28;20241;-74
2022/10/13 10:02:20;;;;;;;12.90;11.60;;;15.40;51.00;;;;;;10412044;28;20236;-74
2022/10/13 10:07:32;;;;;;;12.67;11.43;;;15.40;51.40;;;;;;10424532;28;20238;-74
2022/10/13 10:12:40;;;;;;;15.00;11.03;;;15.60;51.10;;;;;;10426661;28;20232;-74
2022/10/13 10:17:50;;;;;;;10.87;9.77;;;15.60;50.80;;;;;;10419766;28;20232;-74
2022/10/13 10:23:04;;;;;;;10.33;9.33;;;15.70;50.90;;;;;;10425873;28;20237;-76
2022/10/13 10:28:32;;;;;;;11.47;10.20;;;15.80;51.40;;;;;;10434309;28;20836;-75
2022/10/13 10:33:44;;;;;;;12.43;11.23;;;15.90;51.40;;;;;;10422766;28;20232;-75
2022/10/13 10:38:51;;;;;;;14.27;10.37;;;16.00;51.20;;;;;;10415695;28;20279;-74
2022/10/13 10:44:01;;;;;;;12.27;11.07;;;16.10;51.20;;;;;;10425718;28;20236;-73
2022/10/13 10:49:13;;;;;;;10.50;9.60;;;16.20;51.30;;;;;;10418112;28;20232;-72
2022/10/13 10:54:34;;;;;;;11.77;10.73;;;16.40;51.50;;;;;;10418685;28;20308;-73
2022/10/13 10:59:50;;;;;;;12.13;10.97;;;16.50;51.60;;;;;;10422494;28;21798;-73
2022/10/13 11:04:54;;;;;;;11.67;10.57;;;16.70;51.30;;;;;;10422549;28;20294;-73
2022/10/13 11:10:19;;;;;;;12.00;10.80;;;16.80;51.00;;;;;;10426340;28;20225;-73
2022/10/13 11:15:26;;;;;;;10.90;10.00;;;16.90;50.80;;;;;;10420001;28;20225;-73
2022/10/13 11:20:48;;;;;;;13.13;10.73;;;17.00;50.90;;;;;;10419177;28;20221;-73
2022/10/13 11:25:51;;;;;;;12.70;10.33;;;17.20;51.00;;;;;;10420661;28;20230;-73
2022/10/13 11:30:57;;;;;;;13.37;11.53;;;17.30;50.40;;;;;;10418949;28;20228;-73
2022/10/13 11:36:33;;;;;;;12.13;10.93;;;17.40;50.00;;;;;;10416315;28;20706;-73
2022/10/13 11:41:43;;;;;;;13.53;11.77;;;17.50;49.70;;;;;;10418446;28;20222;-73
2022/10/13 11:47:02;;;;;;;12.37;11.17;;;17.60;49.20;;;;;;10424822;28;20244;-73
2022/10/13 11:52:34;;;;;;;14.83;12.00;;;17.70;49.30;;;;;;10420561;28;20259;-73
2022/10/13 11:57:37;;;;;;;12.13;11.03;;;17.70;49.30;;;;;;10423495;28;20279;-73
2022/10/13 12:02:49;;;;;;;13.23;10.77;;;17.80;49.50;;;;;;10422919;28;20231;-73
2022/10/13 12:07:55;;;;;;;12.97;11.50;;;17.90;49.10;;;;;;10417074;28;20736;-72
2022/10/13 12:12:58;;;;;;;12.40;11.07;;;18.00;49.30;;;;;;10416630;28;20225;-73
2022/10/13 12:18:18;;;;;;;11.87;10.70;;;18.10;49.50;;;;;;10419776;28;20237;-72
2022/10/13 12:23:22;;;;;;;10.90;9.77;;;18.30;48.80;;;;;;10413264;28;20245;-72
2022/10/13 12:28:27;;;;;;;12.63;9.60;;;18.40;48.50;;;;;;10420126;28;20252;-73
2022/10/13 12:33:34;;;;;;;10.13;9.13;;;18.40;48.10;;;;;;10411566;28;20644;-72
2022/10/13 12:38:38;;;;;;;10.47;9.40;;;18.50;47.40;;;;;;10419370;28;20258;-72
2022/10/13 12:43:43;;;;;;;11.47;9.37;;;18.50;47.40;;;;;;10417290;28;20754;-72
2022/10/13 12:48:50;;;;;;;10.53;9.23;;;18.60;47.50;;;;;;10417895;28;20237;-73
2022/10/13 12:53:53;;;;;;;13.03;10.23;;;18.60;47.50;;;;;;10417921;28;20218;-73
2022/10/13 12:58:57;;;;;;;12.20;10.00;;;18.70;47.60;;;;;;10415229;28;20236;-73
2022/10/13 13:04:16;;;;;;;12.00;10.47;;;18.80;47.70;;;;;;10410089;28;20323;-72
2022/10/13 13:09:22;;;;;;;12.47;9.37;;;18.80;46.50;;;;;;10413345;28;20683;-73
2022/10/13 13:14:36;;;;;;;11.47;9.27;;;18.90;46.40;;;;;;10420430;28;20342;-73
2022/10/13 13:19:41;;;;;;;10.47;8.27;;;18.90;46.30;;;;;;10413737;28;20232;-72
2022/10/13 13:24:45;;;;;;;9.07;7.90;;;19.00;46.50;;;;;;10409131;28;20229;-73
2022/10/13 13:29:49;;;;;;;9.60;7.63;;;19.10;46.90;;;;;;10415993;28;20238;-73
2022/10/13 13:34:53;;;;;;;9.53;8.50;;;19.20;46.70;;;;;;10408970;28;20271;-73
2022/10/13 13:39:57;;;;;;;10.03;8.90;;;19.30;46.10;;;;;;10417598;28;21162;-74
2022/10/13 13:45:00;;;;;;;10.47;8.77;;;19.30;46.00;;;;;;10424233;28;20283;-73
2022/10/13 13:50:13;;;;;;;12.20;8.17;;;19.40;46.20;;;;;;10421664;28;20224;-73
2022/10/13 13:55:17;;;;;;;9.23;8.13;;;19.40;45.00;;;;;;10425331;28;20286;-73
2022/10/13 14:00:20;;;;;;;11.40;8.80;;;19.40;45.90;;;;;;10425657;28;20229;-73
2022/10/13 14:05:25;;;;;;;11.00;7.90;;;19.40;45.70;;;;;;10424478;28;20229;-73
2022/10/13 14:10:29;;;;;;;8.90;7.73;;;19.40;45.70;;;;;;10423962;28;20236;-73
2022/10/13 14:15:32;;;;;;;8.97;8.07;;;19.50;45.90;;;;;;10425386;28;20308;-73
2022/10/13 14:20:41;;;;;;;8.70;7.80;;;19.50;45.80;;;;;;10424380;28;20733;-73
2022/10/13 14:25:44;;;;;;;13.87;7.00;;;19.50;45.10;;;;;;10424250;28;20650;-73
2022/10/13 14:30:47;;;;;;;8.97;7.40;;;19.50;45.70;;;;;;10421340;28;20726;-71
2022/10/13 14:35:59;;;;;;;8.10;7.40;;;19.50;46.00;;;;;;10426006;28;20228;-71
2022/10/13 14:41:05;;;;;;;7.97;7.17;;;19.60;45.50;;;;;;10422739;28;20634;-71
2022/10/13 14:46:08;;;;;;;11.13;7.90;;;19.60;45.90;;;;;;10423257;28;20233;-71
2022/10/13 14:51:12;;;;;;;9.60;8.60;;;19.60;45.90;;;;;;10426669;28;20287;-70
2022/10/13 14:56:18;;;;;;;9.63;7.93;;;19.60;45.60;;;;;;10421620;28;20225;-71
2022/10/13 15:01:21;;;;;;;8.73;7.83;;;19.60;45.50;;;;;;10425761;28;20241;-71
2022/10/13 15:06:26;;;;;;;12.27;8.27;;;19.50;45.70;;;;;;10423975;28;20602;-70
2022/10/13 15:11:30;;;;;;;9.77;8.87;;;19.50;45.50;;;;;;10421629;28;20279;-70
2022/10/13 15:16:33;;;;;;;9.03;8.07;;;19.50;45.80;;;;;;10419502;28;21771;-71
2022/10/13 15:21:38;;;;;;;9.70;8.80;;;19.50;46.10;;;;;;10418552;28;20854;-70
2022/10/13 15:26:41;;;;;;;11.43;10.00;;;19.50;45.60;;;;;;10421550;28;20236;-70
2022/10/13 15:31:44;;;;;;;10.07;8.73;;;19.50;45.70;;;;;;10421800;28;20225;-70
2022/10/13 15:36:49;;;;;;;10.03;9.07;;;19.50;45.70;;;;;;10416223;28;20291;-70
2022/10/13 15:41:52;;;;;;;12.20;9.30;;;19.60;45.60;;;;;;10419983;28;20221;-70
2022/10/13 15:46:56;;;;;;;9.70;8.80;;;19.50;45.60;;;;;;10419980;28;20276;-70
2022/10/13 15:52:11;;;;;;;8.90;8.07;;;19.50;45.60;;;;;;10419864;28;20221;-70
2022/10/13 15:57:14;;;;;;;9.70;8.70;;;19.50;45.50;;;;;;10415175;28;20276;-70
2022/10/13 16:02:17;;;;;;;11.57;9.77;;;19.50;46.30;;;;;;10419830;28;20229;-70
2022/10/13 16:07:22;;;;;;;13.47;10.70;;;19.40;45.50;;;;;;10423060;28;20694;-70
2022/10/13 16:12:27;;;;;;;14.10;9.37;;;19.40;45.30;;;;;;10419825;28;21211;-70
2022/10/13 16:17:30;;;;;;;10.63;9.53;;;19.40;45.50;;;;;;10420828;28;20241;-70
2022/10/13 16:22:34;;;;;;;9.47;8.57;;;19.40;45.60;;;;;;10412401;28;20580;-70
2022/10/13 16:27:37;;;;;;;10.30;9.30;;;19.40;45.40;;;;;;10414016;28;20237;-73
2022/10/13 16:32:46;;;;;;;10.27;8.90;;;19.30;45.30;;;;;;10415900;28;20221;-72
2022/10/13 16:37:50;;;;;;;10.03;9.13;;;19.20;45.20;;;;;;10418190;28;20283;-73
2022/10/13 16:42:53;;;;;;;9.37;7.10;;;19.20;45.30;;;;;;10415795;28;20228;-73
2022/10/13 16:47:56;;;;;;;10.37;9.40;;;19.10;45.50;;;;;;10416623;28;20308;-72
2022/10/13 16:53:01;;;;;;;10.00;9.03;;;19.10;45.50;;;;;;10420274;28;20236;-72
2022/10/13 16:58:04;;;;;;;11.00;9.97;;;19.10;45.50;;;;;;10414747;28;20221;-72
2022/10/13 17:03:07;;;;;;;10.43;9.33;;;19.00;45.50;;;;;;10418465;28;21133;-72
2022/10/13 17:08:12;;;;;;;9.57;8.50;;;19.00;45.50;;;;;;10415413;28;20949;-72
2022/10/13 17:13:15;;;;;;;12.07;9.07;;;19.00;45.50;;;;;;10415297;28;20232;-73
2022/10/13 17:18:18;;;;;;;12.37;9.97;;;18.90;45.40;;;;;;10417263;28;21022;-72
2022/10/13 17:23:24;;;;;;;9.17;8.13;;;18.90;45.50;;;;;;10414960;28;20283;-72
2022/10/13 17:28:27;;;;;;;10.63;9.30;;;18.80;45.40;;;;;;10423733;28;20233;-73
2022/10/13 17:33:34;;;;;;;10.13;8.47;;;18.80;45.50;;;;;;10415211;28;20307;-72
2022/10/13 17:38:38;;;;;;;10.90;9.33;;;18.70;45.30;;;;;;10418202;28;20236;-72
2022/10/13 17:43:43;;;;;;;11.93;9.90;;;18.70;45.20;;;;;;10416937;28;20275;-72
2022/10/13 17:48:46;;;;;;;10.37;9.33;;;18.70;45.20;;;;;;10416469;28;20240;-72
2022/10/13 17:53:52;;;;;;;11.90;10.70;;;18.60;45.20;;;;;;10415681;28;20230;-72
2022/10/13 17:58:55;;;;;;;11.87;10.17;;;18.60;45.00;;;;;;10413196;28;20230;-72
2022/10/13 18:04:01;;;;;;;10.37;9.23;;;18.50;45.00;;;;;;10412477;28;20226;-72
2022/10/13 18:09:08;;;;;;;10.93;9.63;;;18.40;45.00;;;;;;10413687;28;20435;-71
2022/10/13 18:14:11;;;;;;;11.17;10.03;;;18.40;44.80;;;;;;10419521;28;20260;-72
2022/10/13 18:19:14;;;;;;;11.33;10.27;;;18.30;44.90;;;;;;10414038;28;20233;-72
2022/10/13 18:24:19;;;;;;;11.03;9.47;;;18.20;44.80;;;;;;10417295;28;20221;-72
2022/10/13 18:29:22;;;;;;;9.30;8.40;;;18.10;44.70;;;;;;10429879;28;20237;-71
2022/10/13 18:34:26;;;;;;;9.63;8.30;;;18.10;44.80;;;;;;10423539;28;20229;-72
2022/10/13 18:39:33;;;;;;;9.47;8.57;;;18.00;44.80;;;;;;10419591;28;20225;-72
2022/10/13 18:44:36;;;;;;;9.40;8.50;;;18.00;44.60;;;;;;10422712;28;20228;-71
2022/10/13 18:49:39;;;;;;;9.93;8.50;;;17.90;44.50;;;;;;10417071;28;20244;-72
2022/10/13 18:54:45;;;;;;;8.87;7.97;;;17.80;44.50;;;;;;10417196;28;20233;-72
2022/10/13 18:59:48;;;;;;;9.27;8.47;;;17.70;44.40;;;;;;10425791;28;20629;-72
2022/10/13 19:04:51;;;;;;;12.07;9.90;;;17.60;44.40;;;;;;10420689;28;20622;-71
2022/10/13 19:09:56;;;;;;;12.43;11.13;;;17.50;44.50;;;;;;10424370;28;20232;-71
2022/10/13 19:14:59;;;;;;;14.97;13.53;;;17.50;44.60;;;;;;10427384;28;20275;-71
2022/10/13 19:20:02;;;;;;;16.37;13.77;;;17.40;44.80;;;;;;10423895;28;20244;-73
2022/10/13 19:25:08;;;;;;;15.67;14.07;;;17.30;45.00;;;;;;10433732;28;20228;-74
2022/10/13 19:30:12;;;;;;;15.10;13.60;;;17.20;45.20;;;;;;10416696;28;20244;-75
2022/10/13 19:35:15;;;;;;;13.83;12.23;;;17.20;45.30;;;;;;10422506;28;20221;-73
2022/10/13 19:40:20;;;;;;;13.87;11.80;;;17.20;45.40;;;;;;10424179;28;20228;-74
2022/10/13 19:45:23;;;;;;;13.63;12.23;;;17.10;45.30;;;;;;10415145;28;20245;-76
2022/10/13 19:50:26;;;;;;;11.27;10.17;;;17.10;45.20;;;;;;10417309;28;20236;-76
2022/10/13 19:55:32;;;;;;;12.30;10.97;;;17.10;45.10;;;;;;10422827;28;20801;-76
2022/10/13 20:00:36;;;;;;;13.10;11.40;;;17.00;45.20;;;;;;10420701;28;20236;-76
2022/10/13 20:05:39;;;;;;;13.80;12.50;;;16.90;45.20;;;;;;10411704;28;20221;-76
2022/10/13 20:10:44;;;;;;;12.43;10.47;;;16.90;45.30;;;;;;10416957;28;20233;-76
2022/10/13 20:15:47;;;;;;;12.93;11.53;;;16.90;45.40;;;;;;10417978;28;20224;-76
2022/10/13 20:20:50;;;;;;;12.10;10.73;;;16.90;46.10;;;;;;10410009;28;20232;-76
2022/10/13 20:25:55;;;;;;;12.60;11.40;;;16.80;45.30;;;;;;10404672;28;20718;-76
2022/10/13 20:31:01;;;;;;;12.70;11.20;;;16.80;45.60;;;;;;10418167;28;20713;-76
2022/10/13 20:36:07;;;;;;;11.03;9.90;;;16.70;45.90;;;;;;10408735;28;20213;-76
2022/10/13 20:41:17;;;;;;;10.60;9.50;;;16.60;45.70;;;;;;10415902;28;20232;-76
2022/10/13 20:46:22;;;;;;;14.03;12.63;;;16.60;45.70;;;;;;10409644;28;20228;-75
2022/10/13 20:51:25;;;;;;;18.77;15.50;;;16.60;45.70;;;;;;10405707;28;20233;-75
2022/10/13 20:56:30;;;;;;;16.97;14.60;;;16.60;45.70;;;;;;10410924;28;20722;-76
2022/10/13 21:01:34;;;;;;;16.57;15.03;;;16.50;45.60;;;;;;10415811;28;20219;-76
2022/10/13 21:06:38;;;;;;;14.63;13.13;;;16.50;45.60;;;;;;10412459;28;20232;-75
2022/10/13 21:11:42;;;;;;;17.30;15.50;;;16.40;45.60;;;;;;10422157;28;20228;-76
2022/10/13 21:16:46;;;;;;;15.23;13.20;;;16.40;46.10;;;;;;10423970;28;20233;-75
2022/10/13 21:21:49;;;;;;;20.07;17.37;;;16.40;46.00;;;;;;10418492;28;20221;-76
2022/10/13 21:26:54;;;;;;;20.53;16.50;;;16.40;46.10;;;;;;10414385;28;20247;-75
2022/10/13 21:31:57;;;;;;;17.83;14.73;;;16.40;46.30;;;;;;10410956;28;20232;-75
2022/10/13 21:37:00;;;;;;;13.53;12.07;;;16.50;46.10;;;;;;10414348;28;20243;-75
2022/10/13 21:42:05;;;;;;;14.57;12.60;;;16.50;46.10;;;;;;10412176;28;20225;-75
2022/10/13 21:47:08;;;;;;;17.53;12.33;;;16.50;46.60;;;;;;10416022;28;20225;-75
2022/10/13 21:52:12;;;;;;;12.90;11.80;;;16.50;46.40;;;;;;10410177;28;20240;-75
2022/10/13 21:57:17;;;;;;;13.27;12.00;;;16.50;46.30;;;;;;10406599;28;20242;-75
2022/10/13 22:02:20;;;;;;;9.97;8.97;;;16.50;46.60;;;;;;10418676;28;20294;-76
2022/10/13 22:07:24;;;;;;;8.47;6.97;;;16.40;46.60;;;;;;10417797;28;20240;-75
2022/10/13 22:12:28;;;;;;;7.00;5.83;;;16.30;46.90;;;;;;10412413;28;20231;-75
2022/10/13 22:17:32;;;;;;;6.77;6.17;;;16.20;47.50;;;;;;10421042;28;20226;-75
2022/10/13 22:22:35;;;;;;;7.27;6.03;;;16.20;47.70;;;;;;10420429;28;20686;-76
2022/10/13 22:27:39;;;;;;;6.23;5.63;;;16.10;47.70;;;;;;10419429;28;20245;-73
2022/10/13 22:32:43;;;;;;;6.03;5.30;;;16.10;48.10;;;;;;10415198;28;20745;-72
2022/10/13 22:37:46;;;;;;;5.70;5.10;;;16.10;47.90;;;;;;10412784;28;20237;-72
2022/10/13 22:42:50;;;;;;;5.13;4.63;;;16.10;48.00;;;;;;10436056;28;20232;-75
2022/10/13 22:47:53;;;;;;;4.20;3.80;;;16.10;48.50;;;;;;10446194;28;20240;-75
2022/10/13 22:52:57;;;;;;;5.60;3.70;;;16.10;48.30;;;;;;10446496;28;20233;-75
2022/10/13 22:58:01;;;;;;;4.00;3.70;;;16.20;48.30;;;;;;10445621;28;20241;-75
2022/10/13 23:03:06;;;;;;;4.87;3.93;;;16.20;48.50;;;;;;10446105;28;20233;-75
2022/10/13 23:08:10;;;;;;;5.17;4.43;;;16.20;48.50;;;;;;10445354;28;20247;-75
2022/10/13 23:13:14;;;;;;;5.77;5.03;;;16.20;48.30;;;;;;10444184;28;20239;-75
2022/10/13 23:18:17;;;;;;;6.37;5.77;;;16.20;48.80;;;;;;10444949;28;20225;-75
2022/10/13 23:23:21;;;;;;;6.00;4.77;;;16.20;48.40;;;;;;10444451;28;20232;-74
2022/10/13 23:28:25;;;;;;;5.17;4.67;;;16.30;48.50;;;;;;10443394;28;20256;-75
2022/10/13 23:33:30;;;;;;;4.30;3.90;;;16.30;48.80;;;;;;10443140;28;20278;-75
2022/10/13 23:38:34;;;;;;;5.40;4.00;;;16.40;48.40;;;;;;10443152;28;20237;-75
2022/10/13 23:43:39;;;;;;;6.27;4.30;;;16.30;48.30;;;;;;10443195;28;20575;-75
2022/10/13 23:48:42;;;;;;;4.83;4.40;;;16.30;48.70;;;;;;10442167;28;20237;-74
2022/10/13 23:53:46;;;;;;;3.97;3.67;;;16.40;48.50;;;;;;10443295;28;20228;-75
2022/10/13 23:58:51;;;;;;;4.90;4.50;;;16.40;48.40;;;;;;10443395;28;20283;-75
